sensor_id;sensor_type;location;lat;lon;timestamp;P1;durP1;ratioP1;P2;durP2;ratioP2
13607;SDS011;6875;50.852;5.672;2023-04-01T00:01:36;16.20;;;9.33;;
13607;SDS011;6875;50.852;5.672;2023-04-01T00:04:03;16.80;;;10.93;;
13607;SDS011;6875;50.852;5.672;2023-04-01T00:06:29;17.57;;;10.77;;
13607;SDS011;6875;50.852;5.672;2023-04-01T00:08:56;12.33;;;9.87;;
13607;SDS011;6875;50.852;5.672;2023-04-01T00:11:24;15.90;;;10.73;;
13607;SDS011;6875;50.852;5.672;2023-04-01T00:13:52;13.47;;;10.20;;
13607;SDS011;6875;50.852;5.672;2023-04-01T00:16:19;13.83;;;9.63;;
13607;SDS011;6875;50.852;5.672;2023-04-01T00:18:45;14.80;;;9.63;;
13607;SDS011;6875;50.852;5.672;2023-04-01T00:21:12;16.63;;;10.13;;
13607;SDS011;6875;50.852;5.672;2023-04-01T00:23:39;15.70;;;10.97;;
13607;SDS011;6875;50.852;5.672;2023-04-01T00:26:06;13.47;;;10.03;;
13607;SDS011;6875;50.852;5.672;2023-04-01T00:28:34;10.17;;;8.87;;
13607;SDS011;6875;50.852;5.672;2023-04-01T00:31:03;10.03;;;8.77;;
13607;SDS011;6875;50.852;5.672;2023-04-01T00:33:31;12.13;;;8.97;;
13607;SDS011;6875;50.852;5.672;2023-04-01T00:36:05;12.70;;;9.67;;
13607;SDS011;6875;50.852;5.672;2023-04-01T00:38:33;11.97;;;9.13;;
13607;SDS011;6875;50.852;5.672;2023-04-01T00:41:00;10.57;;;8.60;;
13607;SDS011;6875;50.852;5.672;2023-04-01T00:43:26;13.80;;;9.73;;
13607;SDS011;6875;50.852;5.672;2023-04-01T00:45:54;10.57;;;8.87;;
13607;SDS011;6875;50.852;5.672;2023-04-01T00:48:22;15.90;;;9.27;;
13607;SDS011;6875;50.852;5.672;2023-04-01T00:50:50;13.03;;;9.80;;
13607;SDS011;6875;50.852;5.672;2023-04-01T00:53:18;13.67;;;9.30;;
13607;SDS011;6875;50.852;5.672;2023-04-01T00:55:47;14.20;;;9.27;;
13607;SDS011;6875;50.852;5.672;2023-04-01T00:58:17;12.57;;;8.50;;
13607;SDS011;6875;50.852;5.672;2023-04-01T01:00:45;14.10;;;9.13;;
13607;SDS011;6875;50.852;5.672;2023-04-01T01:03:14;12.80;;;8.20;;
13607;SDS011;6875;50.852;5.672;2023-04-01T01:05:46;13.27;;;6.90;;
13607;SDS011;6875;50.852;5.672;2023-04-01T01:08:23;11.27;;;7.20;;
13607;SDS011;6875;50.852;5.672;2023-04-01T01:10:55;8.80;;;6.00;;
13607;SDS011;6875;50.852;5.672;2023-04-01T01:13:22;10.13;;;5.43;;
13607;SDS011;6875;50.852;5.672;2023-04-01T01:15:53;8.40;;;5.77;;
13607;SDS011;6875;50.852;5.672;2023-04-01T01:18:26;6.87;;;5.23;;
13607;SDS011;6875;50.852;5.672;2023-04-01T01:24:13;11.27;;;5.60;;
13607;SDS011;6875;50.852;5.672;2023-04-01T01:26:55;8.67;;;5.40;;
13607;SDS011;6875;50.852;5.672;2023-04-01T01:32:28;7.87;;;4.20;;
13607;SDS011;6875;50.852;5.672;2023-04-01T01:37:49;7.40;;;3.37;;
13607;SDS011;6875;50.852;5.672;2023-04-01T01:40:18;5.43;;;2.87;;
13607;SDS011;6875;50.852;5.672;2023-04-01T01:42:47;3.23;;;2.43;;
13607;SDS011;6875;50.852;5.672;2023-04-01T01:45:16;6.23;;;2.60;;
13607;SDS011;6875;50.852;5.672;2023-04-01T01:47:45;6.10;;;2.57;;
13607;SDS011;6875;50.852;5.672;2023-04-01T01:50:12;5.20;;;2.73;;
13607;SDS011;6875;50.852;5.672;2023-04-01T01:52:41;4.00;;;2.63;;
13607;SDS011;6875;50.852;5.672;2023-04-01T01:55:22;6.63;;;3.27;;
13607;SDS011;6875;50.852;5.672;2023-04-01T01:57:51;5.60;;;3.27;;
13607;SDS011;6875;50.852;5.672;2023-04-01T02:00:17;4.67;;;2.70;;
13607;SDS011;6875;50.852;5.672;2023-04-01T02:02:46;7.67;;;3.47;;
13607;SDS011;6875;50.852;5.672;2023-04-01T02:05:14;4.20;;;3.67;;
13607;SDS011;6875;50.852;5.672;2023-04-01T02:07:45;6.87;;;3.30;;
13607;SDS011;6875;50.852;5.672;2023-04-01T02:10:14;6.00;;;3.40;;
13607;SDS011;6875;50.852;5.672;2023-04-01T02:12:41;4.73;;;3.33;;
13607;SDS011;6875;50.852;5.672;2023-04-01T02:15:09;4.80;;;3.13;;
13607;SDS011;6875;50.852;5.672;2023-04-01T02:17:37;7.67;;;3.37;;
13607;SDS011;6875;50.852;5.672;2023-04-01T02:20:06;7.63;;;3.50;;
13607;SDS011;6875;50.852;5.672;2023-04-01T02:22:36;5.27;;;4.10;;
13607;SDS011;6875;50.852;5.672;2023-04-01T02:25:09;11.53;;;4.83;;
13607;SDS011;6875;50.852;5.672;2023-04-01T02:27:37;8.37;;;4.80;;
13607;SDS011;6875;50.852;5.672;2023-04-01T02:30:05;8.30;;;4.80;;
13607;SDS011;6875;50.852;5.672;2023-04-01T02:32:32;8.07;;;4.67;;
13607;SDS011;6875;50.852;5.672;2023-04-01T02:35:00;12.13;;;5.63;;
13607;SDS011;6875;50.852;5.672;2023-04-01T02:37:30;8.00;;;4.03;;
13607;SDS011;6875;50.852;5.672;2023-04-01T02:39:58;11.10;;;4.63;;
13607;SDS011;6875;50.852;5.672;2023-04-01T02:42:27;8.77;;;5.00;;
13607;SDS011;6875;50.852;5.672;2023-04-01T02:44:53;10.10;;;5.37;;
13607;SDS011;6875;50.852;5.672;2023-04-01T02:47:20;7.70;;;4.80;;
13607;SDS011;6875;50.852;5.672;2023-04-01T02:49:46;9.03;;;5.17;;
13607;SDS011;6875;50.852;5.672;2023-04-01T02:52:13;14.57;;;5.40;;
13607;SDS011;6875;50.852;5.672;2023-04-01T02:54:39;11.37;;;5.47;;
13607;SDS011;6875;50.852;5.672;2023-04-01T02:57:06;9.93;;;5.73;;
13607;SDS011;6875;50.852;5.672;2023-04-01T02:59:34;10.20;;;5.47;;
13607;SDS011;6875;50.852;5.672;2023-04-01T03:02:01;9.83;;;5.53;;
13607;SDS011;6875;50.852;5.672;2023-04-01T03:04:27;11.70;;;5.13;;
13607;SDS011;6875;50.852;5.672;2023-04-01T03:06:54;8.73;;;4.63;;
13607;SDS011;6875;50.852;5.672;2023-04-01T03:09:20;9.23;;;4.43;;
13607;SDS011;6875;50.852;5.672;2023-04-01T03:11:47;10.23;;;5.20;;
13607;SDS011;6875;50.852;5.672;2023-04-01T03:14:13;10.93;;;5.70;;
13607;SDS011;6875;50.852;5.672;2023-04-01T03:16:41;9.80;;;6.00;;
13607;SDS011;6875;50.852;5.672;2023-04-01T03:19:07;9.63;;;5.73;;
13607;SDS011;6875;50.852;5.672;2023-04-01T03:21:34;11.53;;;8.50;;
13607;SDS011;6875;50.852;5.672;2023-04-01T03:24:00;15.33;;;8.50;;
13607;SDS011;6875;50.852;5.672;2023-04-01T03:26:27;16.33;;;9.23;;
13607;SDS011;6875;50.852;5.672;2023-04-01T03:28:54;19.80;;;10.63;;
13607;SDS011;6875;50.852;5.672;2023-04-01T03:31:21;17.10;;;10.30;;
13607;SDS011;6875;50.852;5.672;2023-04-01T03:33:48;19.47;;;11.77;;
13607;SDS011;6875;50.852;5.672;2023-04-01T03:36:15;17.97;;;11.33;;
13607;SDS011;6875;50.852;5.672;2023-04-01T03:38:42;19.53;;;11.50;;
13607;SDS011;6875;50.852;5.672;2023-04-01T03:41:11;20.70;;;12.03;;
13607;SDS011;6875;50.852;5.672;2023-04-01T03:43:38;24.63;;;13.53;;
13607;SDS011;6875;50.852;5.672;2023-04-01T03:46:04;19.60;;;11.57;;
13607;SDS011;6875;50.852;5.672;2023-04-01T03:48:31;22.43;;;12.07;;
13607;SDS011;6875;50.852;5.672;2023-04-01T03:50:59;19.97;;;11.27;;
13607;SDS011;6875;50.852;5.672;2023-04-01T03:53:26;20.77;;;12.30;;
13607;SDS011;6875;50.852;5.672;2023-04-01T03:55:52;21.43;;;12.27;;
13607;SDS011;6875;50.852;5.672;2023-04-01T03:58:19;23.80;;;11.70;;
13607;SDS011;6875;50.852;5.672;2023-04-01T04:00:45;16.90;;;9.77;;
13607;SDS011;6875;50.852;5.672;2023-04-01T04:03:12;20.63;;;10.47;;
13607;SDS011;6875;50.852;5.672;2023-04-01T04:05:45;23.60;;;11.53;;
13607;SDS011;6875;50.852;5.672;2023-04-01T04:08:14;25.83;;;12.27;;
13607;SDS011;6875;50.852;5.672;2023-04-01T04:10:40;20.73;;;12.67;;
13607;SDS011;6875;50.852;5.672;2023-04-01T04:13:08;19.20;;;11.10;;
13607;SDS011;6875;50.852;5.672;2023-04-01T04:15:34;18.80;;;11.23;;
13607;SDS011;6875;50.852;5.672;2023-04-01T04:18:01;19.17;;;10.40;;
13607;SDS011;6875;50.852;5.672;2023-04-01T04:20:27;20.00;;;10.63;;
13607;SDS011;6875;50.852;5.672;2023-04-01T04:22:54;17.00;;;10.00;;
13607;SDS011;6875;50.852;5.672;2023-04-01T04:25:22;18.43;;;9.87;;
13607;SDS011;6875;50.852;5.672;2023-04-01T04:27:48;19.97;;;10.33;;
13607;SDS011;6875;50.852;5.672;2023-04-01T04:30:15;24.17;;;10.77;;
13607;SDS011;6875;50.852;5.672;2023-04-01T04:32:42;20.87;;;10.63;;
13607;SDS011;6875;50.852;5.672;2023-04-01T04:35:08;18.60;;;10.93;;
13607;SDS011;6875;50.852;5.672;2023-04-01T04:37:35;17.97;;;10.70;;
13607;SDS011;6875;50.852;5.672;2023-04-01T04:40:01;20.30;;;10.10;;
13607;SDS011;6875;50.852;5.672;2023-04-01T04:42:30;19.10;;;11.00;;
13607;SDS011;6875;50.852;5.672;2023-04-01T04:44:56;17.97;;;10.90;;
13607;SDS011;6875;50.852;5.672;2023-04-01T04:47:23;22.70;;;12.67;;
13607;SDS011;6875;50.852;5.672;2023-04-01T04:49:49;26.57;;;13.13;;
13607;SDS011;6875;50.852;5.672;2023-04-01T04:52:16;19.97;;;12.33;;
13607;SDS011;6875;50.852;5.672;2023-04-01T04:54:42;19.07;;;12.67;;
13607;SDS011;6875;50.852;5.672;2023-04-01T04:57:09;22.13;;;12.77;;
13607;SDS011;6875;50.852;5.672;2023-04-01T04:59:37;26.17;;;15.00;;
13607;SDS011;6875;50.852;5.672;2023-04-01T05:02:03;21.57;;;13.60;;
13607;SDS011;6875;50.852;5.672;2023-04-01T05:04:30;25.93;;;14.80;;
13607;SDS011;6875;50.852;5.672;2023-04-01T05:07:00;25.43;;;15.57;;
13607;SDS011;6875;50.852;5.672;2023-04-01T05:09:27;27.13;;;16.47;;
13607;SDS011;6875;50.852;5.672;2023-04-01T05:11:53;26.33;;;15.17;;
13607;SDS011;6875;50.852;5.672;2023-04-01T05:14:20;28.40;;;16.13;;
13607;SDS011;6875;50.852;5.672;2023-04-01T05:16:48;27.90;;;16.80;;
13607;SDS011;6875;50.852;5.672;2023-04-01T05:19:15;28.43;;;17.30;;
13607;SDS011;6875;50.852;5.672;2023-04-01T05:21:42;30.63;;;18.90;;
13607;SDS011;6875;50.852;5.672;2023-04-01T05:24:09;30.17;;;15.77;;
13607;SDS011;6875;50.852;5.672;2023-04-01T05:26:36;28.07;;;16.07;;
13607;SDS011;6875;50.852;5.672;2023-04-01T05:29:02;37.03;;;20.50;;
13607;SDS011;6875;50.852;5.672;2023-04-01T05:31:29;42.93;;;23.20;;
13607;SDS011;6875;50.852;5.672;2023-04-01T05:33:57;39.37;;;21.17;;
13607;SDS011;6875;50.852;5.672;2023-04-01T05:36:23;40.20;;;22.20;;
13607;SDS011;6875;50.852;5.672;2023-04-01T05:38:50;43.93;;;22.93;;
13607;SDS011;6875;50.852;5.672;2023-04-01T05:41:17;39.17;;;19.40;;
13607;SDS011;6875;50.852;5.672;2023-04-01T05:43:43;38.73;;;18.07;;
13607;SDS011;6875;50.852;5.672;2023-04-01T05:46:10;41.87;;;18.23;;
13607;SDS011;6875;50.852;5.672;2023-04-01T05:48:36;35.93;;;17.60;;
13607;SDS011;6875;50.852;5.672;2023-04-01T05:51:05;35.30;;;16.73;;
13607;SDS011;6875;50.852;5.672;2023-04-01T05:53:31;40.67;;;18.20;;
13607;SDS011;6875;50.852;5.672;2023-04-01T05:56:01;44.23;;;18.20;;
13607;SDS011;6875;50.852;5.672;2023-04-01T05:58:28;39.10;;;17.90;;
13607;SDS011;6875;50.852;5.672;2023-04-01T06:00:59;43.20;;;18.20;;
13607;SDS011;6875;50.852;5.672;2023-04-01T06:03:26;40.93;;;16.87;;
13607;SDS011;6875;50.852;5.672;2023-04-01T06:05:53;48.87;;;18.77;;
13607;SDS011;6875;50.852;5.672;2023-04-01T06:08:21;49.17;;;19.23;;
13607;SDS011;6875;50.852;5.672;2023-04-01T06:10:50;49.27;;;20.30;;
13607;SDS011;6875;50.852;5.672;2023-04-01T06:13:25;39.67;;;17.33;;
13607;SDS011;6875;50.852;5.672;2023-04-01T06:15:59;44.57;;;18.07;;
13607;SDS011;6875;50.852;5.672;2023-04-01T06:21:28;43.67;;;17.30;;
13607;SDS011;6875;50.852;5.672;2023-04-01T06:24:08;41.70;;;16.97;;
13607;SDS011;6875;50.852;5.672;2023-04-01T06:26:46;40.50;;;16.27;;
13607;SDS011;6875;50.852;5.672;2023-04-01T06:32:15;49.50;;;19.97;;
13607;SDS011;6875;50.852;5.672;2023-04-01T06:34:55;43.70;;;17.50;;
13607;SDS011;6875;50.852;5.672;2023-04-01T06:37:39;40.73;;;16.67;;
13607;SDS011;6875;50.852;5.672;2023-04-01T06:40:20;47.13;;;19.87;;
13607;SDS011;6875;50.852;5.672;2023-04-01T06:42:59;43.60;;;18.03;;
13607;SDS011;6875;50.852;5.672;2023-04-01T06:45:33;44.43;;;18.40;;
13607;SDS011;6875;50.852;5.672;2023-04-01T06:48:11;42.87;;;19.53;;
13607;SDS011;6875;50.852;5.672;2023-04-01T06:50:48;55.43;;;20.27;;
13607;SDS011;6875;50.852;5.672;2023-04-01T06:53:19;44.67;;;20.37;;
13607;SDS011;6875;50.852;5.672;2023-04-01T06:55:50;40.97;;;18.13;;
13607;SDS011;6875;50.852;5.672;2023-04-01T06:58:20;35.20;;;18.13;;
13607;SDS011;6875;50.852;5.672;2023-04-01T07:00:49;36.63;;;16.93;;
13607;SDS011;6875;50.852;5.672;2023-04-01T07:03:19;30.20;;;14.70;;
13607;SDS011;6875;50.852;5.672;2023-04-01T07:05:47;34.73;;;14.53;;
13607;SDS011;6875;50.852;5.672;2023-04-01T07:08:16;34.23;;;16.53;;
13607;SDS011;6875;50.852;5.672;2023-04-01T07:10:45;32.83;;;15.10;;
13607;SDS011;6875;50.852;5.672;2023-04-01T07:13:16;29.20;;;14.40;;
13607;SDS011;6875;50.852;5.672;2023-04-01T07:15:49;32.43;;;15.90;;
13607;SDS011;6875;50.852;5.672;2023-04-01T07:18:22;37.27;;;17.20;;
13607;SDS011;6875;50.852;5.672;2023-04-01T07:20:51;33.50;;;17.27;;
13607;SDS011;6875;50.852;5.672;2023-04-01T07:23:20;31.20;;;17.03;;
13607;SDS011;6875;50.852;5.672;2023-04-01T07:25:51;34.77;;;16.30;;
13607;SDS011;6875;50.852;5.672;2023-04-01T07:28:20;36.83;;;16.07;;
13607;SDS011;6875;50.852;5.672;2023-04-01T07:30:51;31.63;;;14.97;;
13607;SDS011;6875;50.852;5.672;2023-04-01T07:33:19;28.93;;;12.37;;
13607;SDS011;6875;50.852;5.672;2023-04-01T07:35:50;25.80;;;12.27;;
13607;SDS011;6875;50.852;5.672;2023-04-01T07:38:20;22.00;;;10.83;;
13607;SDS011;6875;50.852;5.672;2023-04-01T07:40:54;24.93;;;12.57;;
13607;SDS011;6875;50.852;5.672;2023-04-01T07:46:29;24.57;;;13.33;;
13607;SDS011;6875;50.852;5.672;2023-04-01T07:49:06;30.27;;;14.17;;
13607;SDS011;6875;50.852;5.672;2023-04-01T07:51:35;29.40;;;14.30;;
13607;SDS011;6875;50.852;5.672;2023-04-01T07:54:07;31.30;;;14.83;;
13607;SDS011;6875;50.852;5.672;2023-04-01T07:56:38;34.10;;;15.67;;
13607;SDS011;6875;50.852;5.672;2023-04-01T07:59:10;31.77;;;15.93;;
13607;SDS011;6875;50.852;5.672;2023-04-01T08:01:45;35.30;;;15.57;;
13607;SDS011;6875;50.852;5.672;2023-04-01T08:04:18;36.70;;;17.73;;
13607;SDS011;6875;50.852;5.672;2023-04-01T08:06:51;32.17;;;14.03;;
13607;SDS011;6875;50.852;5.672;2023-04-01T08:09:22;28.93;;;16.87;;
13607;SDS011;6875;50.852;5.672;2023-04-01T08:12:04;34.50;;;17.90;;
13607;SDS011;6875;50.852;5.672;2023-04-01T08:14:43;31.27;;;17.03;;
13607;SDS011;6875;50.852;5.672;2023-04-01T08:17:17;35.40;;;17.27;;
13607;SDS011;6875;50.852;5.672;2023-04-01T08:19:52;36.97;;;19.73;;
13607;SDS011;6875;50.852;5.672;2023-04-01T08:22:26;34.27;;;18.70;;
13607;SDS011;6875;50.852;5.672;2023-04-01T08:24:54;29.37;;;16.37;;
13607;SDS011;6875;50.852;5.672;2023-04-01T08:27:23;32.63;;;15.77;;
13607;SDS011;6875;50.852;5.672;2023-04-01T08:29:55;33.40;;;17.77;;
13607;SDS011;6875;50.852;5.672;2023-04-01T08:32:25;34.40;;;17.10;;
13607;SDS011;6875;50.852;5.672;2023-04-01T08:34:55;32.87;;;15.87;;
13607;SDS011;6875;50.852;5.672;2023-04-01T08:37:28;32.80;;;15.63;;
13607;SDS011;6875;50.852;5.672;2023-04-01T08:39:57;35.47;;;17.43;;
13607;SDS011;6875;50.852;5.672;2023-04-01T08:42:29;37.77;;;18.40;;
13607;SDS011;6875;50.852;5.672;2023-04-01T08:45:17;34.77;;;16.97;;
13607;SDS011;6875;50.852;5.672;2023-04-01T08:48:00;34.53;;;15.70;;
13607;SDS011;6875;50.852;5.672;2023-04-01T08:50:54;27.10;;;14.93;;
13607;SDS011;6875;50.852;5.672;2023-04-01T08:53:37;34.13;;;16.20;;
13607;SDS011;6875;50.852;5.672;2023-04-01T08:56:13;22.63;;;12.33;;
13607;SDS011;6875;50.852;5.672;2023-04-01T09:02:05;23.07;;;14.17;;
13607;SDS011;6875;50.852;5.672;2023-04-01T09:05:05;26.03;;;13.33;;
13607;SDS011;6875;50.852;5.672;2023-04-01T09:07:43;26.93;;;14.67;;
13607;SDS011;6875;50.852;5.672;2023-04-01T09:10:18;21.73;;;12.37;;
13607;SDS011;6875;50.852;5.672;2023-04-01T09:12:56;21.70;;;12.23;;
13607;SDS011;6875;50.852;5.672;2023-04-01T09:15:42;21.63;;;12.23;;
13607;SDS011;6875;50.852;5.672;2023-04-01T09:21:31;18.20;;;11.53;;
13607;SDS011;6875;50.852;5.672;2023-04-01T09:27:02;23.90;;;14.23;;
13607;SDS011;6875;50.852;5.672;2023-04-01T09:29:39;24.53;;;14.00;;
13607;SDS011;6875;50.852;5.672;2023-04-01T09:32:18;22.40;;;13.53;;
13607;SDS011;6875;50.852;5.672;2023-04-01T09:35:10;18.93;;;11.80;;
13607;SDS011;6875;50.852;5.672;2023-04-01T09:37:51;16.53;;;10.77;;
13607;SDS011;6875;50.852;5.672;2023-04-01T09:40:21;19.50;;;11.13;;
13607;SDS011;6875;50.852;5.672;2023-04-01T09:43:01;16.37;;;10.00;;
13607;SDS011;6875;50.852;5.672;2023-04-01T09:45:39;18.50;;;11.23;;
13607;SDS011;6875;50.852;5.672;2023-04-01T09:48:12;16.93;;;11.70;;
13607;SDS011;6875;50.852;5.672;2023-04-01T09:50:48;17.50;;;10.70;;
13607;SDS011;6875;50.852;5.672;2023-04-01T09:53:20;19.83;;;12.20;;
13607;SDS011;6875;50.852;5.672;2023-04-01T09:56:03;21.47;;;12.17;;
13607;SDS011;6875;50.852;5.672;2023-04-01T09:59:08;25.03;;;13.13;;
13607;SDS011;6875;50.852;5.672;2023-04-01T10:08:21;13.90;;;8.80;;
13607;SDS011;6875;50.852;5.672;2023-04-01T10:14:07;15.73;;;7.33;;
13607;SDS011;6875;50.852;5.672;2023-04-01T10:16:46;19.97;;;9.03;;
13607;SDS011;6875;50.852;5.672;2023-04-01T10:19:40;16.67;;;9.43;;
13607;SDS011;6875;50.852;5.672;2023-04-01T10:22:24;14.90;;;9.67;;
13607;SDS011;6875;50.852;5.672;2023-04-01T10:28:48;14.33;;;8.90;;
13607;SDS011;6875;50.852;5.672;2023-04-01T10:31:27;15.03;;;9.87;;
13607;SDS011;6875;50.852;5.672;2023-04-01T10:36:52;21.10;;;11.40;;
13607;SDS011;6875;50.852;5.672;2023-04-01T10:39:27;20.43;;;9.50;;
13607;SDS011;6875;50.852;5.672;2023-04-01T10:42:20;16.63;;;9.63;;
13607;SDS011;6875;50.852;5.672;2023-04-01T10:45:03;19.40;;;10.77;;
13607;SDS011;6875;50.852;5.672;2023-04-01T10:53:46;25.50;;;12.50;;
13607;SDS011;6875;50.852;5.672;2023-04-01T10:59:20;15.73;;;9.50;;
13607;SDS011;6875;50.852;5.672;2023-04-01T11:11:04;16.90;;;10.50;;
13607;SDS011;6875;50.852;5.672;2023-04-01T11:17:16;15.43;;;8.17;;
13607;SDS011;6875;50.852;5.672;2023-04-01T11:23:03;12.90;;;7.93;;
13607;SDS011;6875;50.852;5.672;2023-04-01T11:25:50;15.43;;;7.63;;
13607;SDS011;6875;50.852;5.672;2023-04-01T11:28:27;12.03;;;6.70;;
13607;SDS011;6875;50.852;5.672;2023-04-01T11:31:17;15.50;;;7.93;;
13607;SDS011;6875;50.852;5.672;2023-04-01T11:33:53;10.87;;;7.03;;
13607;SDS011;6875;50.852;5.672;2023-04-01T11:36:29;10.10;;;6.77;;
13607;SDS011;6875;50.852;5.672;2023-04-01T11:39:08;11.20;;;7.30;;
13607;SDS011;6875;50.852;5.672;2023-04-01T11:41:40;9.77;;;6.30;;
13607;SDS011;6875;50.852;5.672;2023-04-01T11:44:15;10.00;;;6.80;;
13607;SDS011;6875;50.852;5.672;2023-04-01T11:46:47;10.80;;;6.90;;
13607;SDS011;6875;50.852;5.672;2023-04-01T11:52:06;10.27;;;5.80;;
13607;SDS011;6875;50.852;5.672;2023-04-01T11:54:45;11.53;;;5.87;;
13607;SDS011;6875;50.852;5.672;2023-04-01T12:00:14;7.13;;;4.30;;
13607;SDS011;6875;50.852;5.672;2023-04-01T12:02:55;8.53;;;6.00;;
13607;SDS011;6875;50.852;5.672;2023-04-01T12:05:37;8.93;;;5.70;;
13607;SDS011;6875;50.852;5.672;2023-04-01T12:08:10;10.67;;;6.93;;
13607;SDS011;6875;50.852;5.672;2023-04-01T12:10:44;8.67;;;6.07;;
13607;SDS011;6875;50.852;5.672;2023-04-01T12:13:17;8.40;;;6.23;;
13607;SDS011;6875;50.852;5.672;2023-04-01T12:15:55;9.40;;;6.63;;
13607;SDS011;6875;50.852;5.672;2023-04-01T12:18:38;11.53;;;6.70;;
13607;SDS011;6875;50.852;5.672;2023-04-01T12:21:11;11.40;;;6.47;;
13607;SDS011;6875;50.852;5.672;2023-04-01T12:23:57;10.63;;;6.90;;
13607;SDS011;6875;50.852;5.672;2023-04-01T12:32:20;9.20;;;6.60;;
13607;SDS011;6875;50.852;5.672;2023-04-01T12:35:02;11.90;;;7.13;;
13607;SDS011;6875;50.852;5.672;2023-04-01T12:37:41;15.10;;;8.00;;
13607;SDS011;6875;50.852;5.672;2023-04-01T12:43:09;12.40;;;6.00;;
13607;SDS011;6875;50.852;5.672;2023-04-01T12:45:48;10.80;;;6.57;;
13607;SDS011;6875;50.852;5.672;2023-04-01T12:48:32;13.50;;;7.10;;
13607;SDS011;6875;50.852;5.672;2023-04-01T12:51:17;10.33;;;6.27;;
13607;SDS011;6875;50.852;5.672;2023-04-01T12:53:59;8.00;;;4.90;;
13607;SDS011;6875;50.852;5.672;2023-04-01T12:56:53;7.97;;;5.13;;
13607;SDS011;6875;50.852;5.672;2023-04-01T12:59:35;8.30;;;5.30;;
13607;SDS011;6875;50.852;5.672;2023-04-01T13:02:13;10.27;;;5.70;;
13607;SDS011;6875;50.852;5.672;2023-04-01T13:07:54;9.00;;;5.93;;
13607;SDS011;6875;50.852;5.672;2023-04-01T13:10:27;10.03;;;6.60;;
13607;SDS011;6875;50.852;5.672;2023-04-01T13:13:08;11.77;;;7.13;;
13607;SDS011;6875;50.852;5.672;2023-04-01T13:15:57;16.53;;;8.57;;
13607;SDS011;6875;50.852;5.672;2023-04-01T13:18:27;16.23;;;10.60;;
13607;SDS011;6875;50.852;5.672;2023-04-01T13:21:03;18.37;;;11.30;;
13607;SDS011;6875;50.852;5.672;2023-04-01T13:23:34;19.43;;;9.77;;
13607;SDS011;6875;50.852;5.672;2023-04-01T13:26:07;19.33;;;9.93;;
13607;SDS011;6875;50.852;5.672;2023-04-01T13:28:40;22.10;;;11.43;;
13607;SDS011;6875;50.852;5.672;2023-04-01T13:31:14;20.30;;;11.50;;
13607;SDS011;6875;50.852;5.672;2023-04-01T13:33:53;19.97;;;10.80;;
13607;SDS011;6875;50.852;5.672;2023-04-01T13:36:27;19.67;;;11.20;;
13607;SDS011;6875;50.852;5.672;2023-04-01T13:39:01;18.47;;;11.43;;
13607;SDS011;6875;50.852;5.672;2023-04-01T13:41:40;15.07;;;9.17;;
13607;SDS011;6875;50.852;5.672;2023-04-01T13:44:13;14.77;;;9.60;;
13607;SDS011;6875;50.852;5.672;2023-04-01T13:46:57;19.47;;;9.97;;
13607;SDS011;6875;50.852;5.672;2023-04-01T13:52:44;20.97;;;10.20;;
13607;SDS011;6875;50.852;5.672;2023-04-01T13:55:33;19.87;;;10.63;;
13607;SDS011;6875;50.852;5.672;2023-04-01T13:58:12;17.97;;;10.87;;
13607;SDS011;6875;50.852;5.672;2023-04-01T14:00:51;18.17;;;11.00;;
13607;SDS011;6875;50.852;5.672;2023-04-01T14:03:30;19.63;;;10.77;;
13607;SDS011;6875;50.852;5.672;2023-04-01T14:06:23;19.13;;;11.83;;
13607;SDS011;6875;50.852;5.672;2023-04-01T14:11:49;17.27;;;10.73;;
13607;SDS011;6875;50.852;5.672;2023-04-01T14:14:21;16.27;;;11.00;;
13607;SDS011;6875;50.852;5.672;2023-04-01T14:16:57;18.40;;;12.90;;
13607;SDS011;6875;50.852;5.672;2023-04-01T14:19:38;17.93;;;10.77;;
13607;SDS011;6875;50.852;5.672;2023-04-01T14:22:26;18.43;;;11.93;;
13607;SDS011;6875;50.852;5.672;2023-04-01T14:25:04;19.73;;;11.97;;
13607;SDS011;6875;50.852;5.672;2023-04-01T14:27:48;18.80;;;12.13;;
13607;SDS011;6875;50.852;5.672;2023-04-01T14:30:31;17.30;;;11.73;;
13607;SDS011;6875;50.852;5.672;2023-04-01T14:33:05;22.03;;;12.13;;
13607;SDS011;6875;50.852;5.672;2023-04-01T14:35:48;20.83;;;12.67;;
13607;SDS011;6875;50.852;5.672;2023-04-01T14:41:09;18.70;;;12.67;;
13607;SDS011;6875;50.852;5.672;2023-04-01T14:44:00;23.60;;;12.53;;
13607;SDS011;6875;50.852;5.672;2023-04-01T14:46:58;28.23;;;14.30;;
13607;SDS011;6875;50.852;5.672;2023-04-01T14:49:35;26.33;;;14.73;;
13607;SDS011;6875;50.852;5.672;2023-04-01T14:52:05;18.13;;;12.20;;
13607;SDS011;6875;50.852;5.672;2023-04-01T14:54:37;21.40;;;13.23;;
13607;SDS011;6875;50.852;5.672;2023-04-01T14:57:10;19.40;;;12.10;;
13607;SDS011;6875;50.852;5.672;2023-04-01T14:59:39;19.83;;;12.10;;
13607;SDS011;6875;50.852;5.672;2023-04-01T15:02:09;16.53;;;11.70;;
13607;SDS011;6875;50.852;5.672;2023-04-01T15:04:44;20.53;;;11.67;;
13607;SDS011;6875;50.852;5.672;2023-04-01T15:07:20;20.30;;;13.53;;
13607;SDS011;6875;50.852;5.672;2023-04-01T15:09:58;18.60;;;12.30;;
13607;SDS011;6875;50.852;5.672;2023-04-01T15:12:29;17.63;;;11.23;;
13607;SDS011;6875;50.852;5.672;2023-04-01T15:15:11;23.80;;;13.87;;
13607;SDS011;6875;50.852;5.672;2023-04-01T15:17:51;19.63;;;13.07;;
13607;SDS011;6875;50.852;5.672;2023-04-01T15:20:29;20.40;;;12.47;;
13607;SDS011;6875;50.852;5.672;2023-04-01T15:23:09;18.10;;;11.87;;
13607;SDS011;6875;50.852;5.672;2023-04-01T15:25:43;18.90;;;10.97;;
13607;SDS011;6875;50.852;5.672;2023-04-01T15:28:19;17.97;;;10.97;;
13607;SDS011;6875;50.852;5.672;2023-04-01T15:30:51;18.30;;;11.37;;
13607;SDS011;6875;50.852;5.672;2023-04-01T15:33:26;19.00;;;12.47;;
13607;SDS011;6875;50.852;5.672;2023-04-01T15:36:00;22.47;;;12.70;;
13607;SDS011;6875;50.852;5.672;2023-04-01T15:38:34;21.87;;;13.03;;
13607;SDS011;6875;50.852;5.672;2023-04-01T15:41:05;25.10;;;14.63;;
13607;SDS011;6875;50.852;5.672;2023-04-01T15:43:39;24.13;;;14.63;;
13607;SDS011;6875;50.852;5.672;2023-04-01T15:49:01;19.07;;;11.30;;
13607;SDS011;6875;50.852;5.672;2023-04-01T15:51:41;15.23;;;9.20;;
13607;SDS011;6875;50.852;5.672;2023-04-01T15:54:24;11.80;;;6.87;;
13607;SDS011;6875;50.852;5.672;2023-04-01T15:57:02;12.90;;;7.87;;
13607;SDS011;6875;50.852;5.672;2023-04-01T15:59:44;11.23;;;7.77;;
13607;SDS011;6875;50.852;5.672;2023-04-01T16:02:18;12.13;;;8.57;;
13607;SDS011;6875;50.852;5.672;2023-04-01T16:04:50;13.10;;;8.33;;
13607;SDS011;6875;50.852;5.672;2023-04-01T16:07:25;10.33;;;6.90;;
13607;SDS011;6875;50.852;5.672;2023-04-01T16:10:01;10.73;;;7.27;;
13607;SDS011;6875;50.852;5.672;2023-04-01T16:12:38;11.27;;;7.47;;
13607;SDS011;6875;50.852;5.672;2023-04-01T16:15:14;12.07;;;6.57;;
13607;SDS011;6875;50.852;5.672;2023-04-01T16:17:53;9.53;;;6.73;;
13607;SDS011;6875;50.852;5.672;2023-04-01T16:20:35;11.40;;;7.37;;
13607;SDS011;6875;50.852;5.672;2023-04-01T16:23:10;9.70;;;6.57;;
13607;SDS011;6875;50.852;5.672;2023-04-01T16:25:45;11.93;;;6.60;;
13607;SDS011;6875;50.852;5.672;2023-04-01T16:28:18;9.40;;;6.80;;
13607;SDS011;6875;50.852;5.672;2023-04-01T16:30:48;9.47;;;6.47;;
13607;SDS011;6875;50.852;5.672;2023-04-01T16:33:21;9.30;;;6.67;;
13607;SDS011;6875;50.852;5.672;2023-04-01T16:35:53;8.33;;;6.40;;
13607;SDS011;6875;50.852;5.672;2023-04-01T16:38:23;9.10;;;6.43;;
13607;SDS011;6875;50.852;5.672;2023-04-01T16:41:04;8.90;;;6.10;;
13607;SDS011;6875;50.852;5.672;2023-04-01T16:43:38;9.50;;;6.77;;
13607;SDS011;6875;50.852;5.672;2023-04-01T16:46:13;7.90;;;5.83;;
13607;SDS011;6875;50.852;5.672;2023-04-01T16:48:51;8.83;;;6.73;;
13607;SDS011;6875;50.852;5.672;2023-04-01T16:51:36;8.63;;;6.00;;
13607;SDS011;6875;50.852;5.672;2023-04-01T16:54:14;8.53;;;6.77;;
13607;SDS011;6875;50.852;5.672;2023-04-01T16:56:47;7.97;;;6.13;;